Time;durP1;ratioP1;P1;durP2;ratioP2;P2;SDS_P1;SDS_P2;PMS_P1;PMS_P2;Temp;Humidity;BMP_temperature;BMP_pressure;BME280_temperature;BME280_humidity;BME280_pressure;Samples;Min_cycle;Max_cycle;Signal;HPM_P1;HPM_P2
2023/06/07 00:02:26;;;;;;;;;;;;;;;13.20;100.00;100090.34;5033568;28;1882;-62
2023/06/07 00:04:53;;;;;;;;;;;;;;;13.18;100.00;100089.97;5033733;28;894;-62
2023/06/07 00:07:20;;;;;;;;;;;;;;;13.15;100.00;100088.03;5033598;28;843;-62
2023/06/07 00:09:46;;;;;;;;;;;;;;;13.16;100.00;100083.25;5033651;28;912;-62
2023/06/07 00:12:13;;;;;;;;;;;;;;;13.14;100.00;100089.22;5033233;28;1299;-63
2023/06/07 00:14:40;;;;;;;;;;;;;;;13.11;100.00;100083.72;5033520;28;828;-63
2023/06/07 00:17:08;;;;;;;;;;;;;;;13.05;100.00;100072.28;5033408;28;839;-62
2023/06/07 00:19:34;;;;;;;;;;;;;;;12.96;100.00;100078.31;5033506;28;899;-62
2023/06/07 00:22:02;;;;;;;;;;;;;;;12.91;100.00;100064.09;5033227;28;1963;-62
2023/06/07 00:24:29;;;;;;;;;;;;;;;12.87;100.00;100064.16;5033311;28;887;-62
2023/06/07 00:26:55;;;;;;;;;;;;;;;12.84;100.00;100067.72;5033334;28;832;-63
2023/06/07 00:29:22;;;;;;;;;;;;;;;12.82;100.00;100067.34;5033247;28;840;-62
2023/06/07 00:31:48;;;;;;;;;;;;;;;12.82;100.00;100062.63;5031773;28;1405;-63
2023/06/07 00:34:15;;;;;;;;;;;;;;;12.79;100.00;100063.44;5033177;28;903;-62
2023/06/07 00:36:42;;;;;;;;;;;;;;;12.80;100.00;100059.47;5033072;28;930;-63
2023/06/07 00:39:09;;;;;;;;;;;;;;;12.76;100.00;100058.72;5031880;28;892;-63
2023/06/07 00:41:35;;;;;;;;;;;;;;;12.69;100.00;100050.44;5032866;28;1889;-62
2023/06/07 00:44:02;;;;;;;;;;;;;;;12.62;100.00;100054.06;5032839;28;903;-62
2023/06/07 00:46:29;;;;;;;;;;;;;;;12.60;100.00;100044.59;5033006;28;832;-63
2023/06/07 00:48:57;;;;;;;;;;;;;;;12.62;100.00;100045.75;5031492;28;1322;-63
2023/06/07 00:51:26;;;;;;;;;;;;;;;12.64;100.00;100042.56;5032793;28;808;-64
2023/06/07 00:53:53;;;;;;;;;;;;;;;12.65;100.00;100042.19;5032967;28;882;-64
2023/06/07 00:56:20;;;;;;;;;;;;;;;12.60;100.00;100042.59;5032614;28;895;-64
2023/06/07 00:58:47;;;;;;;;;;;;;;;12.59;100.00;100043.03;5032585;28;843;-63
2023/06/07 01:01:17;;;;;;;;;;;;;;;12.52;100.00;100034.75;5031592;28;1890;-63
2023/06/07 01:03:44;;;;;;;;;;;;;;;12.41;100.00;100027.31;5032468;28;923;-63
2023/06/07 01:06:13;;;;;;;;;;;;;;;12.34;100.00;100024.63;5031238;28;1357;-63
2023/06/07 01:08:41;;;;;;;;;;;;;;;12.27;100.00;100024.69;5032459;28;863;-62
2023/06/07 01:11:10;;;;;;;;;;;;;;;12.25;100.00;100024.31;5032324;28;1254;-62
2023/06/07 01:13:38;;;;;;;;;;;;;;;12.19;100.00;100015.63;5032620;28;827;-62
2023/06/07 01:16:05;;;;;;;;;;;;;;;12.12;100.00;100023.22;5032355;28;1052;-62
2023/06/07 01:18:32;;;;;;;;;;;;;;;12.10;100.00;100025.59;5032347;28;902;-63
2023/06/07 01:21:00;;;;;;;;;;;;;;;12.04;100.00;100023.28;5032132;28;1918;-63
2023/06/07 01:23:33;;;;;;;;;;;;;;;12.00;100.00;100016.97;5032185;28;847;-63
2023/06/07 01:26:00;;;;;;;;;;;;;;;11.91;100.00;100021.41;5032052;28;867;-63
2023/06/07 01:28:27;;;;;;;;;;;;;;;11.81;100.00;100021.03;5032044;28;887;-62
2023/06/07 01:30:54;;;;;;;;;;;;;;;11.81;100.00;100023.00;5032035;28;852;-63
2023/06/07 01:33:21;;;;;;;;;;;;;;;11.79;100.00;100017.09;5032028;28;871;-63
2023/06/07 01:35:51;;;;;;;;;;;;;;;11.96;100.00;100026.50;5031958;28;863;-62
2023/06/07 01:38:19;;;;;;;;;;;;;;;12.27;100.00;100021.94;5031891;28;840;-62
2023/06/07 01:40:47;;;;;;;;;;;;;;;12.18;100.00;100019.63;5031875;28;1897;-62
2023/06/07 01:43:15;;;;;;;;;;;;;;;11.96;100.00;100023.75;5031945;28;867;-62
2023/06/07 01:45:44;;;;;;;;;;;;;;;11.75;100.00;100019.09;5032131;28;895;-62
2023/06/07 01:48:10;;;;;;;;;;;;;;;11.60;100.00;100030.25;5031755;28;893;-62
2023/06/07 01:50:38;;;;;;;;;;;;;;;11.51;100.00;100023.59;5031800;28;899;-62
2023/06/07 01:53:05;;;;;;;;;;;;;;;11.39;100.00;100025.63;5030419;28;1183;-63
2023/06/07 01:55:32;;;;;;;;;;;;;;;11.34;100.00;100019.72;5031563;28;931;-62
2023/06/07 01:58:19;;;;;;;;;;;;;;;11.35;100.00;100019.31;5031697;28;839;-62
2023/06/07 02:00:48;;;;;;;;;;;;;;;11.35;100.00;100016.56;5031534;28;1886;-62
2023/06/07 02:03:18;;;;;;;;;;;;;;;11.30;100.00;100013.41;5031567;28;827;-62
2023/06/07 02:05:53;;;;;;;;;;;;;;;11.21;100.00;100013.84;5031830;28;911;-62
2023/06/07 02:08:37;;;;;;;;;;;;;;;11.24;100.00;100016.59;5031528;28;836;-62
2023/06/07 02:11:05;;;;;;;;;;;;;;;11.27;100.00;100017.78;5031253;28;1258;-62
2023/06/07 02:13:35;;;;;;;;;;;;;;;11.27;100.00;100017.00;5031464;28;825;-62
2023/06/07 02:16:05;;;;;;;;;;;;;;;11.24;100.00;100024.09;5031441;28;812;-62
2023/06/07 02:18:36;;;;;;;;;;;;;;;11.15;100.00;100018.22;5031393;28;876;-62
2023/06/07 02:21:03;;;;;;;;;;;;;;;11.09;100.00;100022.56;5030088;28;1906;-62
2023/06/07 02:23:30;;;;;;;;;;;;;;;11.15;100.00;100029.28;5031236;28;808;-62
2023/06/07 02:25:57;;;;;;;;;;;;;;;11.18;100.00;100025.69;5031400;28;840;-62
2023/06/07 02:28:24;;;;;;;;;;;;;;;11.14;100.00;100022.97;5029977;28;1286;-62
2023/06/07 02:30:51;;;;;;;;;;;;;;;11.04;100.00;100023.78;5031329;28;1072;-62
2023/06/07 02:33:21;;;;;;;;;;;;;;;10.93;100.00;100021.03;5031220;28;895;-62
2023/06/07 02:35:47;;;;;;;;;;;;;;;10.94;100.00;100019.84;5031302;28;907;-62
2023/06/07 02:38:14;;;;;;;;;;;;;;;10.99;100.00;100021.44;5031246;28;832;-62
2023/06/07 02:40:40;;;;;;;;;;;;;;;10.99;100.00;100015.91;5031129;28;1890;-62
2023/06/07 02:43:07;;;;;;;;;;;;;;;10.96;100.00;100019.47;5031195;28;816;-62
2023/06/07 02:45:33;;;;;;;;;;;;;;;10.93;100.00;100017.50;5031165;28;856;-63
2023/06/07 02:48:00;;;;;;;;;;;;;;;10.90;100.00;100016.31;5031132;28;885;-62
2023/06/07 02:50:27;;;;;;;;;;;;;;;10.95;100.00;100013.13;5031128;28;836;-62
2023/06/07 02:52:54;;;;;;;;;;;;;;;11.07;100.00;100019.41;5031028;28;856;-62
2023/06/07 02:55:20;;;;;;;;;;;;;;;11.11;100.00;100023.75;5030987;28;939;-62
2023/06/07 02:57:47;;;;;;;;;;;;;;;11.10;100.00;100026.94;5031143;28;887;-62
2023/06/07 03:00:14;;;;;;;;;;;;;;;11.06;100.00;100029.69;5031112;28;832;-63
2023/06/07 03:02:41;;;;;;;;;;;;;;;11.02;100.00;100028.91;5030978;28;1987;-62
2023/06/07 03:05:08;;;;;;;;;;;;;;;10.98;100.00;100030.91;5031003;28;871;-62
2023/06/07 03:07:35;;;;;;;;;;;;;;;10.96;100.00;100025.78;5031046;28;800;-62
2023/06/07 03:10:02;;;;;;;;;;;;;;;10.94;100.00;100028.16;5031040;28;1003;-63
2023/06/07 03:12:29;;;;;;;;;;;;;;;11.00;100.00;100017.47;5030715;28;1060;-62
2023/06/07 03:14:55;;;;;;;;;;;;;;;11.07;100.00;100014.66;5030926;28;887;-62
2023/06/07 03:17:22;;;;;;;;;;;;;;;11.18;100.00;100018.22;5030977;28;871;-62
2023/06/07 03:19:49;;;;;;;;;;;;;;;11.31;100.00;100024.06;5031042;28;808;-63
2023/06/07 03:22:17;;;;;;;;;;;;;;;11.42;100.00;100022.03;5030965;28;1906;-62
2023/06/07 03:24:44;;;;;;;;;;;;;;;11.55;100.00;100022.38;5032285;28;871;-62
2023/06/07 03:27:11;;;;;;;;;;;;;;;11.70;100.00;100016.75;5034427;28;840;-62
2023/06/07 03:29:38;;;;;;;;;;;;;;;11.83;100.00;100021.41;5034341;28;853;-62
2023/06/07 03:32:07;;;;;;;;;;;;;;;11.95;100.00;100036.00;5034321;28;878;-62
2023/06/07 03:34:34;;;;;;;;;;;;;;;12.04;100.00;100026.03;5034296;28;851;-62
2023/06/07 03:37:00;;;;;;;;;;;;;;;12.18;100.00;100030.72;5034141;28;878;-62
2023/06/07 03:39:27;;;;;;;;;;;;;;;12.33;100.00;100025.03;5034222;28;898;-62
2023/06/07 03:41:54;;;;;;;;;;;;;;;12.48;100.00;100029.25;5034019;28;1943;-63
2023/06/07 03:44:21;;;;;;;;;;;;;;;12.62;100.00;100028.34;5034029;28;895;-63
2023/06/07 03:46:48;;;;;;;;;;;;;;;12.76;100.00;100028.19;5033980;28;930;-63
2023/06/07 03:49:15;;;;;;;;;;;;;;;12.91;100.00;100026.06;5033966;28;1075;-63
2023/06/07 03:51:43;;;;;;;;;;;;;;;13.05;100.00;100030.66;5033931;28;874;-62
2023/06/07 03:54:10;;;;;;;;;;;;;;;13.17;100.00;100024.56;5033749;28;884;-62
2023/06/07 03:56:37;;;;;;;;;;;;;;;13.27;100.00;100029.22;5033755;28;804;-62
2023/06/07 03:59:04;;;;;;;;;;;;;;;13.40;100.00;100028.66;5033810;28;816;-63
2023/06/07 04:01:30;;;;;;;;;;;;;;;13.59;100.00;100028.03;5033693;28;1945;-63
2023/06/07 04:03:57;;;;;;;;;;;;;;;13.83;100.00;100028.09;5033650;28;820;-63
2023/06/07 04:06:24;;;;;;;;;;;;;;;14.03;100.00;100028.19;5033966;28;816;-63
2023/06/07 04:08:56;;;;;;;;;;;;;;;14.21;100.00;100037.06;5033572;28;856;-62
2023/06/07 04:11:24;;;;;;;;;;;;;;;14.32;100.00;100033.28;5033632;28;1294;-63
2023/06/07 04:13:51;;;;;;;;;;;;;;;14.36;100.00;100045.13;5033817;28;886;-62
2023/06/07 04:16:17;;;;;;;;;;;;;;;14.43;100.00;100040.25;5033643;28;820;-62
2023/06/07 04:18:44;;;;;;;;;;;;;;;14.57;100.00;100038.47;5034111;28;813;-62
2023/06/07 04:21:10;;;;;;;;;;;;;;;14.72;100.00;100044.56;5033684;28;1906;-62
2023/06/07 04:23:37;;;;;;;;;;;;;;;14.89;100.00;100040.66;5033255;28;832;-62
2023/06/07 04:26:06;;;;;;;;;;;;;;;15.11;100.00;100035.47;5033206;28;840;-62
2023/06/07 04:28:32;;;;;;;;;;;;;;;15.34;100.00;100036.59;5033476;28;836;-62
2023/06/07 04:30:58;;;;;;;;;;;;;;;15.57;100.00;100032.94;5033318;28;825;-62
2023/06/07 04:33:24;;;;;;;;;;;;;;;15.74;100.00;100039.38;5033186;28;832;-62
2023/06/07 04:35:51;;;;;;;;;;;;;;;15.86;100.00;100039.47;5032950;28;820;-62
2023/06/07 04:38:21;;;;;;;;;;;;;;;15.98;100.00;100038.03;5032973;28;832;-62
2023/06/07 04:40:50;;;;;;;;;;;;;;;16.13;100.00;100033.69;5033633;28;1943;-63
2023/06/07 04:43:20;;;;;;;;;;;;;;;16.33;100.00;100033.59;5033013;28;923;-62
2023/06/07 04:45:53;;;;;;;;;;;;;;;16.53;100.00;100035.47;5033163;28;816;-62
2023/06/07 04:48:23;;;;;;;;;;;;;;;16.71;100.00;100032.25;5032835;28;840;-62
2023/06/07 04:50:53;;;;;;;;;;;;;;;16.88;100.00;100036.59;5032763;28;918;-62
2023/06/07 04:53:20;;;;;;;;;;;;;;;17.06;100.00;100038.09;5032802;28;839;-62
2023/06/07 04:55:50;;;;;;;;;;;;;;;17.26;100.00;100035.13;5032670;28;887;-62
2023/06/07 04:58:18;;;;;;;;;;;;;;;17.43;100.00;100039.44;5033272;28;812;-62
2023/06/07 05:00:45;;;;;;;;;;;;;;;17.57;100.00;100029.06;5032798;28;1877;-62
2023/06/07 05:03:20;;;;;;;;;;;;;;;17.72;100.00;100036.56;5032947;28;835;-62
2023/06/07 05:05:46;;;;;;;;;;;;;;;18.00;100.00;100028.56;5032455;28;921;-61
2023/06/07 05:08:14;;;;;;;;;;;;;;;18.28;100.00;100032.44;5032427;28;938;-62
2023/06/07 05:10:42;;;;;;;;;;;;;;;18.48;100.00;100034.97;5032549;28;1159;-62
2023/06/07 05:13:09;;;;;;;;;;;;;;;18.67;100.00;100049.13;5032435;28;835;-62
2023/06/07 05:15:36;;;;;;;;;;;;;;;18.90;100.00;100042.38;5032294;28;1035;-62
2023/06/07 05:18:02;;;;;;;;;;;;;;;19.08;100.00;100042.53;5032370;28;820;-62
2023/06/07 05:20:31;;;;;;;;;;;;;;;19.35;100.00;100046.75;5031978;28;1913;-62
2023/06/07 05:22:58;;;;;;;;;;;;;;;19.58;100.00;100049.06;5032183;28;885;-64
2023/06/07 05:25:25;;;;;;;;;;;;;;;19.73;100.00;100049.34;5032439;28;874;-63
2023/06/07 05:27:52;;;;;;;;;;;;;;;19.92;100.00;100044.59;5032179;28;852;-63
2023/06/07 05:30:19;;;;;;;;;;;;;;;20.19;100.00;100046.72;5031980;28;919;-64
2023/06/07 05:32:48;;;;;;;;;;;;;;;20.40;100.00;100038.69;5032067;28;859;-65
2023/06/07 05:35:14;;;;;;;;;;;;;;;20.50;100.00;100043.03;5031935;28;957;-62
2023/06/07 05:37:41;;;;;;;;;;;;;;;20.62;100.00;100040.59;5031963;28;916;-63
2023/06/07 05:40:08;;;;;;;;;;;;;;;20.91;100.00;100046.56;5031879;28;860;-64
2023/06/07 05:42:38;;;;;;;;;;;;;;;21.11;100.00;100046.06;5030557;28;1957;-63
2023/06/07 05:45:08;;;;;;;;;;;;;;;21.43;100.00;100046.69;5030612;28;1499;-62
2023/06/07 05:47:35;;;;;;;;;;;;;;;21.50;100.00;100037.13;5031441;28;887;-64
2023/06/07 05:50:03;;;;;;;;;;;;;;;21.60;100.00;100044.31;5031666;28;871;-64
2023/06/07 05:52:29;;;;;;;;;;;;;;;21.77;100.00;100045.50;5031636;28;915;-64
2023/06/07 05:54:57;;;;;;;;;;;;;;;21.87;98.75;100051.88;5031687;28;876;-65
2023/06/07 05:57:24;;;;;;;;;;;;;;;22.15;97.80;100041.28;5031755;28;848;-65
2023/06/07 05:59:51;;;;;;;;;;;;;;;22.48;96.98;100040.47;5031681;28;816;-65
2023/06/07 06:02:20;;;;;;;;;;;;;;;22.57;94.73;100042.44;5031704;28;1886;-64
2023/06/07 06:04:47;;;;;;;;;;;;;;;22.65;95.24;100038.00;5031817;28;910;-65
2023/06/07 06:07:15;;;;;;;;;;;;;;;22.81;95.05;100023.50;5031626;28;832;-63
2023/06/07 06:09:42;;;;;;;;;;;;;;;23.04;96.09;100029.59;5031823;28;1024;-62
2023/06/07 06:12:10;;;;;;;;;;;;;;;23.20;93.86;100034.75;5031643;28;1253;-63
2023/06/07 06:14:40;;;;;;;;;;;;;;;23.42;92.33;100025.91;5031598;28;872;-62
2023/06/07 06:17:06;;;;;;;;;;;;;;;23.59;91.58;100029.03;5031448;28;919;-64
2023/06/07 06:19:33;;;;;;;;;;;;;;;23.64;90.35;100027.56;5031566;28;848;-64
2023/06/07 06:22:00;;;;;;;;;;;;;;;23.70;91.07;100028.44;5031336;28;1973;-64
2023/06/07 06:24:27;;;;;;;;;;;;;;;23.96;91.70;100036.31;5031401;28;825;-64
2023/06/07 06:26:54;;;;;;;;;;;;;;;24.08;90.61;100031.63;5031391;28;815;-64
2023/06/07 06:29:21;;;;;;;;;;;;;;;24.09;91.98;100039.59;5031259;28;1027;-63
2023/06/07 06:31:48;;;;;;;;;;;;;;;24.22;88.01;100034.41;5031349;28;899;-63
2023/06/07 06:34:15;;;;;;;;;;;;;;;24.45;86.35;100037.50;5031335;28;816;-63
2023/06/07 06:36:42;;;;;;;;;;;;;;;24.72;82.60;100041.22;5031221;28;844;-64
2023/06/07 06:39:09;;;;;;;;;;;;;;;25.18;76.17;100038.41;5031268;28;855;-65
2023/06/07 06:41:36;;;;;;;;;;;;;;;25.75;68.91;100038.94;5031211;28;1913;-64
2023/06/07 06:44:03;;;;;;;;;;;;;;;26.73;63.15;100039.84;5031238;28;894;-64
2023/06/07 06:46:29;;;;;;;;;;;;;;;27.69;55.95;100040.81;5031287;28;804;-66
2023/06/07 06:48:56;;;;;;;;;;;;;;;28.29;52.53;100044.13;5031384;28;871;-64
2023/06/07 06:51:22;;;;;;;;;;;;;;;28.92;47.05;100051.13;5031243;28;819;-64
2023/06/07 06:53:49;;;;;;;;;;;;;;;29.51;44.27;100039.69;5031245;28;816;-63
2023/06/07 06:56:15;;;;;;;;;;;;;;;29.97;38.51;100034.38;5031189;28;1060;-66
2023/06/07 07:10:52;;;;;;;;;;;;;;;31.16;32.45;100028.84;5034915;28;1338;-65
2023/06/07 07:13:19;;;;;;;;;;;;;;;30.59;32.68;100040.19;5034654;28;852;-66
2023/06/07 07:15:46;;;;;;;;;;;;;;;30.41;32.87;100032.41;5034660;28;882;-65
2023/06/07 07:18:13;;;;;;;;;;;;;;;30.41;32.99;100027.47;5034500;28;816;-65
2023/06/07 07:20:39;;;;;;;;;;;;;;;30.69;32.07;100032.06;5034433;28;2040;-65
2023/06/07 07:23:06;;;;;;;;;;;;;;;30.67;32.17;100032.59;5034484;28;886;-66
2023/06/07 07:25:33;;;;;;;;;;;;;;;30.70;31.80;100039.28;5034412;28;831;-66
2023/06/07 07:28:00;;;;;;;;;;;;;;;30.66;32.15;100033.09;5034385;28;817;-66
2023/06/07 07:30:27;;;;;;;;;;;;;;;30.73;31.89;100033.28;5034447;28;848;-66
2023/06/07 07:32:56;;;;;;;;;;;;;;;30.67;32.09;100037.53;5034230;28;844;-67
2023/06/07 07:35:23;;;;;;;;;;;;;;;30.80;32.28;100028.28;5034250;28;899;-65
2023/06/07 07:37:50;;;;;;;;;;;;;;;31.05;32.94;100035.47;5034474;28;968;-65
2023/06/07 07:40:17;;;;;;;;;;;;;;;31.36;31.63;100033.19;5034161;28;895;-65
2023/06/07 07:42:45;;;;;;;;;;;;;;;30.85;31.78;100025.31;5034080;28;1882;-65
2023/06/07 07:45:11;;;;;;;;;;;;;;;30.46;32.23;100017.28;5034142;28;871;-64
2023/06/07 07:47:38;;;;;;;;;;;;;;;30.12;32.12;100023.34;5034009;28;902;-62
2023/06/07 07:50:07;;;;;;;;;;;;;;;29.63;33.55;100026.88;5033894;28;820;-64
2023/06/07 07:52:33;;;;;;;;;;;;;;;29.49;33.93;100030.91;5033943;28;923;-63
2023/06/07 07:55:00;;;;;;;;;;;;;;;29.78;32.79;100022.91;5033862;28;808;-65
2023/06/07 07:57:26;;;;;;;;;;;;;;;29.34;33.81;100030.47;5033826;28;832;-65
2023/06/07 07:59:53;;;;;;;;;;;;;;;29.64;32.88;100033.38;5033763;28;820;-65
2023/06/07 08:02:20;;;;;;;;;;;;;;;30.07;31.37;100024.94;5033638;28;1882;-65
2023/06/07 08:04:46;;;;;;;;;;;;;;;30.17;31.55;100027.44;5033713;28;923;-63
2023/06/07 08:07:16;;;;;;;;;;;;;;;30.73;31.04;100024.72;5033687;28;832;-63
2023/06/07 08:09:44;;;;;;;;;;;;;;;30.81;31.40;100032.66;5033313;28;942;-64
2023/06/07 08:12:10;;;;;;;;;;;;;;;30.39;30.91;100040.72;5033240;28;1419;-64
2023/06/07 08:14:37;;;;;;;;;;;;;;;30.33;30.57;100032.97;5033523;28;801;-65
2023/06/07 08:17:04;;;;;;;;;;;;;;;30.40;31.08;100039.41;5033478;28;875;-63
2023/06/07 08:19:31;;;;;;;;;;;;;;;30.33;32.36;100037.91;5033354;28;828;-64
2023/06/07 08:21:58;;;;;;;;;;;;;;;30.70;31.75;100033.56;5033300;28;1910;-65
2023/06/07 08:24:25;;;;;;;;;;;;;;;31.43;31.12;100024.03;5033399;28;816;-64
2023/06/07 08:26:52;;;;;;;;;;;;;;;31.93;30.24;100028.09;5033292;28;848;-65
2023/06/07 08:29:19;;;;;;;;;;;;;;;31.92;30.74;100026.56;5033265;28;875;-63
2023/06/07 08:31:45;;;;;;;;;;;;;;;31.97;30.34;100027.03;5033194;28;891;-64
2023/06/07 08:34:12;;;;;;;;;;;;;;;31.58;30.50;100028.47;5033473;28;842;-64
2023/06/07 08:36:42;;;;;;;;;;;;;;;31.32;31.98;100021.31;5033089;28;819;-63
2023/06/07 08:39:08;;;;;;;;;;;;;;;31.22;32.32;100023.81;5033344;28;915;-64
2023/06/07 08:41:34;;;;;;;;;;;;;;;30.64;32.05;100022.25;5033597;28;1890;-65
2023/06/07 08:44:01;;;;;;;;;;;;;;;30.31;32.90;100012.78;5032949;28;816;-65
2023/06/07 08:46:31;;;;;;;;;;;;;;;30.70;33.71;100017.25;5032957;28;824;-65
2023/06/07 08:48:58;;;;;;;;;;;;;;;30.87;32.60;100008.47;5032983;28;867;-65
2023/06/07 08:51:26;;;;;;;;;;;;;;;30.57;32.54;100017.16;5033064;28;871;-66
2023/06/07 08:53:57;;;;;;;;;;;;;;;30.33;32.93;100021.56;5032771;28;907;-65
2023/06/07 08:56:25;;;;;;;;;;;;;;;30.23;33.38;100016.75;5032842;28;852;-66
2023/06/07 08:58:52;;;;;;;;;;;;;;;30.07;34.49;100019.25;5032671;28;855;-64
2023/06/07 09:01:21;;;;;;;;;;;;;;;30.09;33.86;100024.41;5032531;28;1962;-64
2023/06/07 09:03:51;;;;;;;;;;;;;;;29.43;34.21;100016.69;5032696;28;895;-64
2023/06/07 09:06:19;;;;;;;;;;;;;;;28.27;36.70;100012.63;5032524;28;812;-65
2023/06/07 09:08:47;;;;;;;;;;;;;;;28.76;36.87;100014.25;5032483;28;855;-65
2023/06/07 09:11:14;;;;;;;;;;;;;;;29.31;35.56;100016.00;5032531;28;1364;-65
2023/06/07 09:13:40;;;;;;;;;;;;;;;29.33;35.18;100015.47;5032441;28;812;-66
2023/06/07 09:16:11;;;;;;;;;;;;;;;29.47;34.67;100011.50;5032300;28;903;-65
2023/06/07 09:18:45;;;;;;;;;;;;;;;29.49;34.78;100008.13;5032244;28;840;-64
2023/06/07 09:21:22;;;;;;;;;;;;;;;29.59;34.13;100008.53;5031451;28;1902;-64
2023/06/07 09:23:51;;;;;;;;;;;;;;;29.69;33.57;100007.69;5032149;28;881;-66
2023/06/07 09:26:18;;;;;;;;;;;;;;;29.47;34.49;100011.50;5032211;28;871;-66
2023/06/07 09:28:46;;;;;;;;;;;;;;;29.69;35.21;100002.00;5032123;28;932;-64
2023/06/07 09:31:13;;;;;;;;;;;;;;;29.94;35.29;100007.72;5032112;28;820;-66
2023/06/07 09:33:40;;;;;;;;;;;;;;;29.89;34.61;100000.78;5032020;28;816;-66
2023/06/07 09:36:08;;;;;;;;;;;;;;;29.62;34.67;99999.72;5031970;28;805;-65
2023/06/07 09:38:35;;;;;;;;;;;;;;;29.33;35.03;100006.16;5032184;28;839;-65
2023/06/07 10:12:06;;;;;;;;;;;;;;;27.73;36.62;99995.13;5132652;22;1662;-65
2023/06/07 10:14:35;;;;;;;;;;;;;;;27.42;38.06;99997.72;5031535;28;823;-64
2023/06/07 10:17:06;;;;;;;;;;;;;;;27.64;38.75;99996.94;5031433;28;883;-65
2023/06/07 10:19:40;;;;;;;;;;;;;;;28.13;37.77;99988.09;5031459;28;823;-65
2023/06/07 10:22:18;;;;;;;;;;;;;;;28.46;37.38;99995.75;5031433;28;1977;-65
2023/06/07 10:24:57;;;;;;;;;;;;;;;28.36;36.50;99988.81;5031460;28;961;-64
2023/06/07 10:27:27;;;;;;;;;;;;;;;28.46;37.35;99984.38;5031331;28;851;-65
2023/06/07 10:30:01;;;;;;;;;;;;;;;28.24;37.18;99990.91;5031361;28;875;-64
2023/06/07 10:32:34;;;;;;;;;;;;;;;27.98;37.43;99981.94;5032248;28;930;-65
2023/06/07 10:35:02;;;;;;;;;;;;;;;27.93;37.20;99980.69;5035851;28;856;-67
2023/06/07 10:37:30;;;;;;;;;;;;;;;27.75;37.18;99990.47;5035520;28;816;-65
2023/06/07 10:39:58;;;;;;;;;;;;;;;27.83;37.38;99971.63;5035579;28;847;-64
2023/06/07 10:42:25;;;;;;;;;;;;;;;28.09;37.08;99973.41;5035204;28;1977;-66
2023/06/07 10:45:00;;;;;;;;;;;;;;;28.38;36.73;99977.69;5035265;28;836;-64
2023/06/07 10:47:29;;;;;;;;;;;;;;;28.94;35.52;99976.66;5035225;28;820;-65
2023/06/07 10:49:56;;;;;;;;;;;;;;;29.14;34.43;99964.13;5035097;28;863;-65
2023/06/07 10:55:32;;;;;;;;;;;;;;;29.03;34.56;99973.47;5035082;28;646;-65
2023/06/07 10:58:00;;;;;;;;;;;;;;;29.14;33.50;99969.81;5033819;28;1305;-65
2023/06/07 11:00:31;;;;;;;;;;;;;;;29.18;33.10;99980.91;5034986;28;879;-64
2023/06/07 11:03:08;;;;;;;;;;;;;;;29.10;32.99;99975.00;5034799;28;1886;-65
2023/06/07 11:05:57;;;;;;;;;;;;;;;29.45;32.66;99970.63;5034830;28;887;-67
2023/06/07 11:08:26;;;;;;;;;;;;;;;29.51;32.19;99974.97;5034802;28;816;-66
2023/06/07 11:10:58;;;;;;;;;;;;;;;29.74;31.43;99977.63;5034578;28;1370;-65
2023/06/07 11:13:25;;;;;;;;;;;;;;;30.07;31.28;99978.59;5034717;28;815;-65
2023/06/07 11:15:52;;;;;;;;;;;;;;;30.16;31.09;99974.59;5034697;28;569;-65
2023/06/07 11:18:19;;;;;;;;;;;;;;;30.18;30.72;99974.84;5034587;28;935;-65
2023/06/07 11:20:49;;;;;;;;;;;;;;;30.35;30.11;99974.66;5034468;28;1910;-66
2023/06/07 11:23:29;;;;;;;;;;;;;;;30.39;29.94;99973.06;5034524;28;808;-65
2023/06/07 11:25:57;;;;;;;;;;;;;;;30.59;29.69;99968.91;5034436;28;859;-65
2023/06/07 11:28:24;;;;;;;;;;;;;;;30.63;29.26;99974.31;5034447;28;867;-65
2023/06/07 11:30:51;;;;;;;;;;;;;;;30.30;29.54;99971.34;5034380;28;1001;-65
2023/06/07 11:33:19;;;;;;;;;;;;;;;30.64;29.57;99961.56;5034352;28;792;-65
2023/06/07 11:35:45;;;;;;;;;;;;;;;30.81;28.89;99962.13;5034301;28;851;-65
2023/06/07 11:38:12;;;;;;;;;;;;;;;30.79;28.62;99956.19;5034285;28;852;-65
2023/06/07 11:40:38;;;;;;;;;;;;;;;31.28;28.55;99952.34;5034095;28;816;-66
2023/06/07 11:43:08;;;;;;;;;;;;;;;31.39;27.51;99962.78;5034076;28;1957;-66
2023/06/07 11:45:35;;;;;;;;;;;;;;;31.44;27.43;99947.69;5033335;28;808;-65
2023/06/07 11:48:02;;;;;;;;;;;;;;;31.53;27.14;99938.69;5034037;28;832;-64
2023/06/07 11:50:29;;;;;;;;;;;;;;;31.09;28.00;99949.56;5034154;28;788;-65
2023/06/07 11:52:56;;;;;;;;;;;;;;;31.11;27.20;99947.69;5033953;28;855;-65
2023/06/07 11:55:24;;;;;;;;;;;;;;;31.55;27.09;99947.50;5034265;28;867;-65
2023/06/07 11:57:53;;;;;;;;;;;;;;;32.12;26.62;99930.09;5033860;28;843;-63
2023/06/07 12:00:27;;;;;;;;;;;;;;;32.95;25.94;99937.38;5033883;28;906;-64
2023/06/07 12:02:54;;;;;;;;;;;;;;;33.85;24.63;99935.13;5033795;28;1951;-63
2023/06/07 12:05:29;;;;;;;;;;;;;;;34.08;25.54;99925.91;5033951;28;922;-65
2023/06/07 12:08:04;;;;;;;;;;;;;;;33.79;25.64;99928.00;5033730;28;910;-65
2023/06/07 12:10:31;;;;;;;;;;;;;;;33.70;26.06;99935.03;5033602;28;919;-66
2023/06/07 12:13:11;;;;;;;;;;;;;;;33.01;26.85;99925.78;5033632;28;819;-65
2023/06/07 12:15:42;;;;;;;;;;;;;;;32.65;27.02;99920.66;5033575;28;815;-66
2023/06/07 12:18:10;;;;;;;;;;;;;;;32.14;27.49;99922.50;5033571;28;894;-64
2023/06/07 12:20:37;;;;;;;;;;;;;;;31.62;28.21;99918.31;5033447;28;835;-65
2023/06/07 12:23:04;;;;;;;;;;;;;;;32.28;27.57;99923.22;5033550;28;1979;-66
2023/06/07 12:25:31;;;;;;;;;;;;;;;32.46;27.28;99917.94;5033349;28;831;-65
2023/06/07 12:27:57;;;;;;;;;;;;;;;32.72;27.02;99928.56;5033341;28;921;-66
2023/06/07 12:30:31;;;;;;;;;;;;;;;32.94;27.33;99925.16;5032111;28;824;-65
2023/06/07 12:32:59;;;;;;;;;;;;;;;34.29;25.87;99917.22;5033479;28;858;-65
2023/06/07 12:35:34;;;;;;;;;;;;;;;34.11;26.11;99916.91;5033689;28;848;-65
2023/06/07 12:38:00;;;;;;;;;;;;;;;34.08;26.32;99925.91;5033078;28;831;-68
2023/06/07 12:40:28;;;;;;;;;;;;;;;34.06;25.59;99920.72;5033131;28;827;-65
2023/06/07 12:42:54;;;;;;;;;;;;;;;33.43;26.25;99914.34;5033009;28;1890;-65
2023/06/07 12:45:21;;;;;;;;;;;;;;;33.36;27.33;99910.88;5033047;28;859;-68
2023/06/07 12:47:47;;;;;;;;;;;;;;;33.23;27.78;99913.81;5032985;28;855;-67
2023/06/07 12:50:14;;;;;;;;;;;;;;;32.83;27.43;99910.34;5032900;28;930;-68
2023/06/07 12:52:41;;;;;;;;;;;;;;;32.53;27.73;99909.47;5033098;28;878;-66
2023/06/07 12:55:08;;;;;;;;;;;;;;;32.01;29.07;99919.66;5032843;28;848;-65
2023/06/07 12:57:35;;;;;;;;;;;;;;;31.40;29.67;99915.81;5032844;28;819;-65
2023/06/07 13:00:02;;;;;;;;;;;;;;;30.58;30.27;99901.78;5032771;28;804;-65
2023/06/07 13:02:30;;;;;;;;;;;;;;;30.28;30.53;99914.09;5032751;28;1955;-65
2023/06/07 13:04:57;;;;;;;;;;;;;;;29.99;31.27;99909.25;5032604;28;876;-65
2023/06/07 13:07:24;;;;;;;;;;;;;;;29.71;31.59;99919.66;5032476;28;876;-65
2023/06/07 13:09:51;;;;;;;;;;;;;;;29.49;31.58;99909.25;5032639;28;955;-65
2023/06/07 13:12:18;;;;;;;;;;;;;;;29.69;32.33;99912.91;5032256;28;1383;-66
2023/06/07 13:14:46;;;;;;;;;;;;;;;30.39;31.15;99915.28;5032530;28;812;-67
2023/06/07 13:17:13;;;;;;;;;;;;;;;30.74;30.84;99906.44;5032398;28;872;-67
2023/06/07 13:19:40;;;;;;;;;;;;;;;30.67;30.51;99912.78;5032253;28;863;-67
2023/06/07 13:22:07;;;;;;;;;;;;;;;30.56;31.03;99915.03;5032587;28;1914;-63
2023/06/07 13:24:33;;;;;;;;;;;;;;;29.68;32.02;99917.84;5032269;28;871;-65
2023/06/07 13:27:00;;;;;;;;;;;;;;;29.25;32.49;99924.22;5032216;28;863;-66
2023/06/07 13:29:26;;;;;;;;;;;;;;;29.36;32.57;99911.16;5032340;28;879;-65
2023/06/07 13:31:53;;;;;;;;;;;;;;;29.50;32.62;99912.84;5032170;28;847;-66
2023/06/07 13:34:20;;;;;;;;;;;;;;;29.88;32.50;99908.06;5032013;28;808;-66
2023/06/07 13:36:46;;;;;;;;;;;;;;;30.23;31.98;99916.97;5032018;28;804;-66
2023/06/07 13:39:13;;;;;;;;;;;;;;;30.74;31.40;99917.09;5031990;28;832;-65
2023/06/07 13:41:39;;;;;;;;;;;;;;;30.05;31.73;99907.88;5032052;28;1955;-66
2023/06/07 13:44:09;;;;;;;;;;;;;;;29.29;32.86;99918.97;5031984;28;907;-66